<?xml version="1.0" encoding="UTF-8" standalone="no" ?>
<gpx xmlns="http://www.topografix.com/GPX/1/1" xmlns:xsi="http://www.w3.org/2001/XMLSchema-instance" xsi:schemaLocation="http://www.topografix.com/GPX/1/1 http://www.topografix.com/GPX/1/1/gpx.xsd" version="1.1" creator="VisuGPX - https://www.visugpx.com">
  <metadata>
    <name>Bas Rupt - Grouvelin</name>
    <desc><![CDATA[File with points/tracks from LocusWorld/]]></desc>
  </metadata>
  <trk>
    <name><![CDATA[2019-02-04 14:00:59]]></name>
    <extensions>
      <line xmlns="http://www.topografix.com/GPX/gpx_style/0/2">
        <color>0000FF</color>
        <opacity>0.78</opacity>
        <width>3.0</width>
      </line>
    </extensions>
    <trkseg>
      <trkpt lat="48.05058" lon="6.8752">
        <ele>800.2</ele>
        <time>2019-02-04T13:01:02.000Z</time>
      </trkpt>
      <trkpt lat="48.05058" lon="6.87522">
        <ele>791.99</ele>
        <time>2019-02-04T13:01:26.000Z</time>
      </trkpt>
      <trkpt lat="48.0507" lon="6.87562">
        <ele>785.54</ele>
        <time>2019-02-04T13:01:45.000Z</time>
      </trkpt>
      <trkpt lat="48.05059" lon="6.876">
        <ele>790.3</ele>
        <time>2019-02-04T13:02:03.000Z</time>
      </trkpt>
      <trkpt lat="48.05072" lon="6.87612">
        <ele>781.16</ele>
        <time>2019-02-04T13:02:22.000Z</time>
      </trkpt>
      <trkpt lat="48.05097" lon="6.87643">
        <ele>786.86</ele>
        <time>2019-02-04T13:02:41.000Z</time>
      </trkpt>
      <trkpt lat="48.05118" lon="6.87657">
        <ele>800.42</ele>
        <time>2019-02-04T13:02:59.000Z</time>
      </trkpt>
      <trkpt lat="48.05131" lon="6.87679">
        <ele>799.5</ele>
        <time>2019-02-04T13:03:17.000Z</time>
      </trkpt>
      <trkpt lat="48.05156" lon="6.87678">
        <ele>797.11</ele>
        <time>2019-02-04T13:03:36.000Z</time>
      </trkpt>
      <trkpt lat="48.05165" lon="6.87681">
        <ele>796.4</ele>
        <time>2019-02-04T13:03:56.000Z</time>
      </trkpt>
      <trkpt lat="48.05187" lon="6.87685">
        <ele>787.28</ele>
        <time>2019-02-04T13:04:14.000Z</time>
      </trkpt>
      <trkpt lat="48.05218" lon="6.87685">
        <ele>783.55</ele>
        <time>2019-02-04T13:04:32.000Z</time>
      </trkpt>
      <trkpt lat="48.05226" lon="6.87691">
        <ele>779.23</ele>
        <time>2019-02-04T13:04:50.000Z</time>
      </trkpt>
      <trkpt lat="48.05258" lon="6.87703">
        <ele>789.15</ele>
        <time>2019-02-04T13:05:10.000Z</time>
      </trkpt>
      <trkpt lat="48.05271" lon="6.87715">
        <ele>790.49</ele>
        <time>2019-02-04T13:05:29.000Z</time>
      </trkpt>
      <trkpt lat="48.05306" lon="6.87684">
        <ele>779.62</ele>
        <time>2019-02-04T13:05:47.000Z</time>
      </trkpt>
      <trkpt lat="48.05304" lon="6.8773">
        <ele>773.91</ele>
        <time>2019-02-04T13:06:06.000Z</time>
      </trkpt>
      <trkpt lat="48.05333" lon="6.87705">
        <ele>761.26</ele>
        <time>2019-02-04T13:06:24.000Z</time>
      </trkpt>
      <trkpt lat="48.05339" lon="6.87699">
        <ele>786.39</ele>
        <time>2019-02-04T13:06:43.000Z</time>
      </trkpt>
      <trkpt lat="48.05349" lon="6.87714">
        <ele>759.83</ele>
        <time>2019-02-04T13:07:01.000Z</time>
      </trkpt>
      <trkpt lat="48.05369" lon="6.87689">
        <ele>781.05</ele>
        <time>2019-02-04T13:07:20.000Z</time>
      </trkpt>
      <trkpt lat="48.05388" lon="6.8768">
        <ele>795.23</ele>
        <time>2019-02-04T13:07:38.000Z</time>
      </trkpt>
      <trkpt lat="48.05404" lon="6.87676">
        <ele>794.19</ele>
        <time>2019-02-04T13:07:57.000Z</time>
      </trkpt>
      <trkpt lat="48.05418" lon="6.87675">
        <ele>785.16</ele>
        <time>2019-02-04T13:08:16.000Z</time>
      </trkpt>
      <trkpt lat="48.0544" lon="6.87643">
        <ele>798.33</ele>
        <time>2019-02-04T13:08:35.000Z</time>
      </trkpt>
      <trkpt lat="48.05457" lon="6.87679">
        <ele>789.93</ele>
        <time>2019-02-04T13:08:53.000Z</time>
      </trkpt>
      <trkpt lat="48.05464" lon="6.8767">
        <ele>779.25</ele>
        <time>2019-02-04T13:09:12.000Z</time>
      </trkpt>
      <trkpt lat="48.05473" lon="6.87659">
        <ele>777.57</ele>
        <time>2019-02-04T13:09:31.000Z</time>
      </trkpt>
      <trkpt lat="48.05474" lon="6.87658">
        <ele>778.34</ele>
        <time>2019-02-04T13:09:48.000Z</time>
      </trkpt>
      <trkpt lat="48.05492" lon="6.87656">
        <ele>794.04</ele>
        <time>2019-02-04T13:10:24.000Z</time>
      </trkpt>
      <trkpt lat="48.05507" lon="6.87682">
        <ele>808.45</ele>
        <time>2019-02-04T13:10:42.000Z</time>
      </trkpt>
      <trkpt lat="48.05509" lon="6.87663">
        <ele>792.83</ele>
        <time>2019-02-04T13:11:00.000Z</time>
      </trkpt>
      <trkpt lat="48.05506" lon="6.87665">
        <ele>782.82</ele>
        <time>2019-02-04T13:11:37.000Z</time>
      </trkpt>
      <trkpt lat="48.05498" lon="6.87714">
        <ele>795.15</ele>
        <time>2019-02-04T13:11:56.000Z</time>
      </trkpt>
      <trkpt lat="48.05504" lon="6.87725">
        <ele>800.04</ele>
        <time>2019-02-04T13:12:14.000Z</time>
      </trkpt>
      <trkpt lat="48.05503" lon="6.87726">
        <ele>800.18</ele>
        <time>2019-02-04T13:12:32.000Z</time>
      </trkpt>
      <trkpt lat="48.0549" lon="6.87787">
        <ele>793.08</ele>
        <time>2019-02-04T13:13:27.000Z</time>
      </trkpt>
      <trkpt lat="48.05451" lon="6.87747">
        <ele>809.83</ele>
        <time>2019-02-04T13:13:45.000Z</time>
      </trkpt>
      <trkpt lat="48.05444" lon="6.8771">
        <ele>825.37</ele>
        <time>2019-02-04T13:14:04.000Z</time>
      </trkpt>
      <trkpt lat="48.05437" lon="6.87782">
        <ele>821.72</ele>
        <time>2019-02-04T13:14:23.000Z</time>
      </trkpt>
      <trkpt lat="48.05444" lon="6.87803">
        <ele>795.36</ele>
        <time>2019-02-04T13:14:42.000Z</time>
      </trkpt>
      <trkpt lat="48.05425" lon="6.87809">
        <ele>813.82</ele>
        <time>2019-02-04T13:15:00.000Z</time>
      </trkpt>
      <trkpt lat="48.05419" lon="6.87811">
        <ele>813.55</ele>
        <time>2019-02-04T13:15:19.000Z</time>
      </trkpt>
      <trkpt lat="48.0539" lon="6.87821">
        <ele>803.65</ele>
        <time>2019-02-04T13:15:38.000Z</time>
      </trkpt>
      <trkpt lat="48.05381" lon="6.87833">
        <ele>810.51</ele>
        <time>2019-02-04T13:15:57.000Z</time>
      </trkpt>
      <trkpt lat="48.05365" lon="6.87846">
        <ele>805.37</ele>
        <time>2019-02-04T13:16:15.000Z</time>
      </trkpt>
      <trkpt lat="48.05348" lon="6.8786">
        <ele>801.17</ele>
        <time>2019-02-04T13:16:34.000Z</time>
      </trkpt>
      <trkpt lat="48.05339" lon="6.87865">
        <ele>802.81</ele>
        <time>2019-02-04T13:16:53.000Z</time>
      </trkpt>
      <trkpt lat="48.05342" lon="6.87885">
        <ele>781.03</ele>
        <time>2019-02-04T13:17:12.000Z</time>
      </trkpt>
      <trkpt lat="48.05307" lon="6.8788">
        <ele>813.12</ele>
        <time>2019-02-04T13:17:33.000Z</time>
      </trkpt>
      <trkpt lat="48.0529" lon="6.87889">
        <ele>808.19</ele>
        <time>2019-02-04T13:17:51.000Z</time>
      </trkpt>
      <trkpt lat="48.0529" lon="6.87903">
        <ele>799.87</ele>
        <time>2019-02-04T13:18:09.000Z</time>
      </trkpt>
      <trkpt lat="48.05203" lon="6.87873">
        <ele>815.65</ele>
        <time>2019-02-04T13:18:28.000Z</time>
      </trkpt>
      <trkpt lat="48.05255" lon="6.87877">
        <ele>807.87</ele>
        <time>2019-02-04T13:18:46.000Z</time>
      </trkpt>
      <trkpt lat="48.05237" lon="6.87898">
        <ele>808.22</ele>
        <time>2019-02-04T13:19:05.000Z</time>
      </trkpt>
      <trkpt lat="48.05221" lon="6.87921">
        <ele>822.76</ele>
        <time>2019-02-04T13:19:23.000Z</time>
      </trkpt>
      <trkpt lat="48.05201" lon="6.87932">
        <ele>829.72</ele>
        <time>2019-02-04T13:19:42.000Z</time>
      </trkpt>
      <trkpt lat="48.05185" lon="6.8794">
        <ele>831.08</ele>
        <time>2019-02-04T13:20:01.000Z</time>
      </trkpt>
      <trkpt lat="48.0518" lon="6.87943">
        <ele>834.18</ele>
        <time>2019-02-04T13:20:19.000Z</time>
      </trkpt>
      <trkpt lat="48.05154" lon="6.87942">
        <ele>837.96</ele>
        <time>2019-02-04T13:20:37.000Z</time>
      </trkpt>
      <trkpt lat="48.05161" lon="6.87986">
        <ele>846.7</ele>
        <time>2019-02-04T13:20:55.000Z</time>
      </trkpt>
      <trkpt lat="48.05139" lon="6.87995">
        <ele>875.28</ele>
        <time>2019-02-04T13:21:14.000Z</time>
      </trkpt>
      <trkpt lat="48.05158" lon="6.87949">
        <ele>870.71</ele>
        <time>2019-02-04T13:21:33.000Z</time>
      </trkpt>
      <trkpt lat="48.05151" lon="6.87955">
        <ele>875.85</ele>
        <time>2019-02-04T13:21:52.000Z</time>
      </trkpt>
      <trkpt lat="48.05146" lon="6.87951">
        <ele>868.03</ele>
        <time>2019-02-04T13:22:11.000Z</time>
      </trkpt>
      <trkpt lat="48.05123" lon="6.87958">
        <ele>882.18</ele>
        <time>2019-02-04T13:22:30.000Z</time>
      </trkpt>
      <trkpt lat="48.05113" lon="6.87973">
        <ele>868.59</ele>
        <time>2019-02-04T13:22:48.000Z</time>
      </trkpt>
      <trkpt lat="48.05111" lon="6.87997">
        <ele>887.23</ele>
        <time>2019-02-04T13:23:07.000Z</time>
      </trkpt>
      <trkpt lat="48.05114" lon="6.87995">
        <ele>894.88</ele>
        <time>2019-02-04T13:23:26.000Z</time>
      </trkpt>
      <trkpt lat="48.0511" lon="6.87997">
        <ele>866.26</ele>
        <time>2019-02-04T13:23:45.000Z</time>
      </trkpt>
      <trkpt lat="48.05117" lon="6.87988">
        <ele>871.63</ele>
        <time>2019-02-04T13:24:06.000Z</time>
      </trkpt>
      <trkpt lat="48.05112" lon="6.87995">
        <ele>868.74</ele>
        <time>2019-02-04T13:24:28.000Z</time>
      </trkpt>
      <trkpt lat="48.05104" lon="6.87992">
        <ele>870.04</ele>
        <time>2019-02-04T13:24:54.000Z</time>
      </trkpt>
      <trkpt lat="48.05102" lon="6.87994">
        <ele>865.01</ele>
        <time>2019-02-04T13:25:39.000Z</time>
      </trkpt>
      <trkpt lat="48.051" lon="6.87987">
        <ele>860.03</ele>
        <time>2019-02-04T13:25:57.000Z</time>
      </trkpt>
      <trkpt lat="48.05101" lon="6.87987">
        <ele>865.95</ele>
        <time>2019-02-04T13:26:18.000Z</time>
      </trkpt>
      <trkpt lat="48.05101" lon="6.87983">
        <ele>865.64</ele>
        <time>2019-02-04T13:26:40.000Z</time>
      </trkpt>
      <trkpt lat="48.05104" lon="6.87981">
        <ele>869.98</ele>
        <time>2019-02-04T13:26:58.000Z</time>
      </trkpt>
      <trkpt lat="48.05106" lon="6.8798">
        <ele>872.58</ele>
        <time>2019-02-04T13:27:16.000Z</time>
      </trkpt>
      <trkpt lat="48.05104" lon="6.87976">
        <ele>880.72</ele>
        <time>2019-02-04T13:27:36.000Z</time>
      </trkpt>
      <trkpt lat="48.05102" lon="6.87976">
        <ele>877.55</ele>
        <time>2019-02-04T13:27:54.000Z</time>
      </trkpt>
      <trkpt lat="48.051" lon="6.87977">
        <ele>875.07</ele>
        <time>2019-02-04T13:28:12.000Z</time>
      </trkpt>
      <trkpt lat="48.05099" lon="6.87976">
        <ele>879.15</ele>
        <time>2019-02-04T13:28:32.000Z</time>
      </trkpt>
      <trkpt lat="48.05099" lon="6.87989">
        <ele>871.5</ele>
        <time>2019-02-04T13:28:51.000Z</time>
      </trkpt>
      <trkpt lat="48.05096" lon="6.87988">
        <ele>873.64</ele>
        <time>2019-02-04T13:29:09.000Z</time>
      </trkpt>
      <trkpt lat="48.05029" lon="6.87972">
        <ele>874.17</ele>
        <time>2019-02-04T13:29:46.000Z</time>
      </trkpt>
      <trkpt lat="48.0501" lon="6.87984">
        <ele>855.6</ele>
        <time>2019-02-04T13:30:05.000Z</time>
      </trkpt>
      <trkpt lat="48.04996" lon="6.87988">
        <ele>864.49</ele>
        <time>2019-02-04T13:30:23.000Z</time>
      </trkpt>
      <trkpt lat="48.04981" lon="6.87976">
        <ele>864.27</ele>
        <time>2019-02-04T13:30:42.000Z</time>
      </trkpt>
      <trkpt lat="48.0498" lon="6.87977">
        <ele>862.7</ele>
        <time>2019-02-04T13:30:59.000Z</time>
      </trkpt>
      <trkpt lat="48.04951" lon="6.88002">
        <ele>875.94</ele>
        <time>2019-02-04T13:31:17.000Z</time>
      </trkpt>
      <trkpt lat="48.04957" lon="6.88044">
        <ele>873.42</ele>
        <time>2019-02-04T13:31:36.000Z</time>
      </trkpt>
      <trkpt lat="48.0494" lon="6.88058">
        <ele>863.96</ele>
        <time>2019-02-04T13:31:55.000Z</time>
      </trkpt>
      <trkpt lat="48.0495" lon="6.88082">
        <ele>871.63</ele>
        <time>2019-02-04T13:32:14.000Z</time>
      </trkpt>
      <trkpt lat="48.04947" lon="6.8813">
        <ele>867.64</ele>
        <time>2019-02-04T13:32:32.000Z</time>
      </trkpt>
      <trkpt lat="48.04944" lon="6.88158">
        <ele>884.68</ele>
        <time>2019-02-04T13:32:51.000Z</time>
      </trkpt>
      <trkpt lat="48.0496" lon="6.88174">
        <ele>875.04</ele>
        <time>2019-02-04T13:33:10.000Z</time>
      </trkpt>
      <trkpt lat="48.04969" lon="6.88185">
        <ele>869.17</ele>
        <time>2019-02-04T13:33:29.000Z</time>
      </trkpt>
      <trkpt lat="48.04959" lon="6.88222">
        <ele>882.07</ele>
        <time>2019-02-04T13:33:48.000Z</time>
      </trkpt>
      <trkpt lat="48.04975" lon="6.88261">
        <ele>877.84</ele>
        <time>2019-02-04T13:34:06.000Z</time>
      </trkpt>
      <trkpt lat="48.04968" lon="6.8829">
        <ele>877.64</ele>
        <time>2019-02-04T13:34:25.000Z</time>
      </trkpt>
      <trkpt lat="48.04948" lon="6.88318">
        <ele>870.21</ele>
        <time>2019-02-04T13:34:43.000Z</time>
      </trkpt>
      <trkpt lat="48.04948" lon="6.88353">
        <ele>871.34</ele>
        <time>2019-02-04T13:35:02.000Z</time>
      </trkpt>
      <trkpt lat="48.04934" lon="6.88371">
        <ele>891.92</ele>
        <time>2019-02-04T13:35:20.000Z</time>
      </trkpt>
      <trkpt lat="48.04923" lon="6.88368">
        <ele>864.2</ele>
        <time>2019-02-04T13:35:38.000Z</time>
      </trkpt>
      <trkpt lat="48.04893" lon="6.88402">
        <ele>895.35</ele>
        <time>2019-02-04T13:35:57.000Z</time>
      </trkpt>
      <trkpt lat="48.0491" lon="6.88439">
        <ele>878.21</ele>
        <time>2019-02-04T13:36:16.000Z</time>
      </trkpt>
      <trkpt lat="48.04875" lon="6.8846">
        <ele>856</ele>
        <time>2019-02-04T13:36:35.000Z</time>
      </trkpt>
      <trkpt lat="48.049" lon="6.88489">
        <ele>869.72</ele>
        <time>2019-02-04T13:36:53.000Z</time>
      </trkpt>
      <trkpt lat="48.04904" lon="6.88512">
        <ele>865.59</ele>
        <time>2019-02-04T13:37:11.000Z</time>
      </trkpt>
      <trkpt lat="48.04915" lon="6.88549">
        <ele>876.07</ele>
        <time>2019-02-04T13:37:30.000Z</time>
      </trkpt>
      <trkpt lat="48.04911" lon="6.88556">
        <ele>869.29</ele>
        <time>2019-02-04T13:37:49.000Z</time>
      </trkpt>
      <trkpt lat="48.04896" lon="6.88547">
        <ele>873.42</ele>
        <time>2019-02-04T13:38:07.000Z</time>
      </trkpt>
      <trkpt lat="48.04921" lon="6.88594">
        <ele>867.61</ele>
        <time>2019-02-04T13:38:25.000Z</time>
      </trkpt>
      <trkpt lat="48.04882" lon="6.88646">
        <ele>900.84</ele>
        <time>2019-02-04T13:38:44.000Z</time>
      </trkpt>
      <trkpt lat="48.0488" lon="6.88671">
        <ele>887.07</ele>
        <time>2019-02-04T13:39:03.000Z</time>
      </trkpt>
      <trkpt lat="48.04898" lon="6.88701">
        <ele>891.41</ele>
        <time>2019-02-04T13:39:22.000Z</time>
      </trkpt>
      <trkpt lat="48.04897" lon="6.88747">
        <ele>915.13</ele>
        <time>2019-02-04T13:39:42.000Z</time>
      </trkpt>
      <trkpt lat="48.04877" lon="6.88775">
        <ele>914.31</ele>
        <time>2019-02-04T13:40:00.000Z</time>
      </trkpt>
      <trkpt lat="48.04869" lon="6.8879">
        <ele>922.43</ele>
        <time>2019-02-04T13:40:18.000Z</time>
      </trkpt>
      <trkpt lat="48.04852" lon="6.88791">
        <ele>911</ele>
        <time>2019-02-04T13:40:37.000Z</time>
      </trkpt>
      <trkpt lat="48.04857" lon="6.88791">
        <ele>934.62</ele>
        <time>2019-02-04T13:40:55.000Z</time>
      </trkpt>
      <trkpt lat="48.04831" lon="6.88825">
        <ele>917.58</ele>
        <time>2019-02-04T13:41:13.000Z</time>
      </trkpt>
      <trkpt lat="48.04825" lon="6.88814">
        <ele>908.83</ele>
        <time>2019-02-04T13:41:32.000Z</time>
      </trkpt>
      <trkpt lat="48.04814" lon="6.88838">
        <ele>902.52</ele>
        <time>2019-02-04T13:41:50.000Z</time>
      </trkpt>
      <trkpt lat="48.04789" lon="6.88864">
        <ele>918.19</ele>
        <time>2019-02-04T13:42:08.000Z</time>
      </trkpt>
      <trkpt lat="48.0478" lon="6.8887">
        <ele>914.57</ele>
        <time>2019-02-04T13:42:26.000Z</time>
      </trkpt>
      <trkpt lat="48.04776" lon="6.88931">
        <ele>884.13</ele>
        <time>2019-02-04T13:42:46.000Z</time>
      </trkpt>
      <trkpt lat="48.04795" lon="6.889">
        <ele>908.15</ele>
        <time>2019-02-04T13:43:05.000Z</time>
      </trkpt>
      <trkpt lat="48.04784" lon="6.88904">
        <ele>905.9</ele>
        <time>2019-02-04T13:43:23.000Z</time>
      </trkpt>
      <trkpt lat="48.04765" lon="6.88903">
        <ele>842.5</ele>
        <time>2019-02-04T13:43:41.000Z</time>
      </trkpt>
      <trkpt lat="48.04733" lon="6.88933">
        <ele>878.77</ele>
        <time>2019-02-04T13:43:59.000Z</time>
      </trkpt>
      <trkpt lat="48.04735" lon="6.88953">
        <ele>882.68</ele>
        <time>2019-02-04T13:44:19.000Z</time>
      </trkpt>
      <trkpt lat="48.04698" lon="6.88981">
        <ele>890.64</ele>
        <time>2019-02-04T13:44:39.000Z</time>
      </trkpt>
      <trkpt lat="48.04696" lon="6.88984">
        <ele>883.32</ele>
        <time>2019-02-04T13:44:57.000Z</time>
      </trkpt>
      <trkpt lat="48.047" lon="6.88991">
        <ele>879.9</ele>
        <time>2019-02-04T13:45:15.000Z</time>
      </trkpt>
      <trkpt lat="48.04658" lon="6.89046">
        <ele>900.38</ele>
        <time>2019-02-04T13:45:33.000Z</time>
      </trkpt>
      <trkpt lat="48.04652" lon="6.89055">
        <ele>896.46</ele>
        <time>2019-02-04T13:45:51.000Z</time>
      </trkpt>
      <trkpt lat="48.04638" lon="6.89066">
        <ele>864.99</ele>
        <time>2019-02-04T13:46:09.000Z</time>
      </trkpt>
      <trkpt lat="48.04632" lon="6.89076">
        <ele>877.45</ele>
        <time>2019-02-04T13:46:27.000Z</time>
      </trkpt>
      <trkpt lat="48.04618" lon="6.8908">
        <ele>886.77</ele>
        <time>2019-02-04T13:46:45.000Z</time>
      </trkpt>
      <trkpt lat="48.04583" lon="6.89086">
        <ele>889.93</ele>
        <time>2019-02-04T13:47:03.000Z</time>
      </trkpt>
      <trkpt lat="48.04594" lon="6.89078">
        <ele>877.88</ele>
        <time>2019-02-04T13:47:22.000Z</time>
      </trkpt>
      <trkpt lat="48.04591" lon="6.89124">
        <ele>886.23</ele>
        <time>2019-02-04T13:47:40.000Z</time>
      </trkpt>
      <trkpt lat="48.04577" lon="6.89115">
        <ele>890.05</ele>
        <time>2019-02-04T13:47:58.000Z</time>
      </trkpt>
      <trkpt lat="48.0457" lon="6.89139">
        <ele>892.61</ele>
        <time>2019-02-04T13:48:16.000Z</time>
      </trkpt>
      <trkpt lat="48.04585" lon="6.89188">
        <ele>893.79</ele>
        <time>2019-02-04T13:48:35.000Z</time>
      </trkpt>
      <trkpt lat="48.04592" lon="6.89209">
        <ele>894.28</ele>
        <time>2019-02-04T13:48:54.000Z</time>
      </trkpt>
      <trkpt lat="48.04582" lon="6.89213">
        <ele>895.68</ele>
        <time>2019-02-04T13:49:12.000Z</time>
      </trkpt>
      <trkpt lat="48.04604" lon="6.8923">
        <ele>892.93</ele>
        <time>2019-02-04T13:49:31.000Z</time>
      </trkpt>
      <trkpt lat="48.04599" lon="6.89242">
        <ele>888.95</ele>
        <time>2019-02-04T13:49:50.000Z</time>
      </trkpt>
      <trkpt lat="48.04587" lon="6.89287">
        <ele>887.85</ele>
        <time>2019-02-04T13:50:11.000Z</time>
      </trkpt>
      <trkpt lat="48.04585" lon="6.89285">
        <ele>888.96</ele>
        <time>2019-02-04T13:50:30.000Z</time>
      </trkpt>
      <trkpt lat="48.04583" lon="6.89279">
        <ele>883.2</ele>
        <time>2019-02-04T13:50:48.000Z</time>
      </trkpt>
      <trkpt lat="48.04587" lon="6.89279">
        <ele>884.73</ele>
        <time>2019-02-04T13:51:23.000Z</time>
      </trkpt>
      <trkpt lat="48.04589" lon="6.89278">
        <ele>886.34</ele>
        <time>2019-02-04T13:52:00.000Z</time>
      </trkpt>
      <trkpt lat="48.0459" lon="6.89278">
        <ele>887.22</ele>
        <time>2019-02-04T13:52:19.000Z</time>
      </trkpt>
      <trkpt lat="48.04601" lon="6.8927">
        <ele>894.51</ele>
        <time>2019-02-04T13:52:57.000Z</time>
      </trkpt>
      <trkpt lat="48.04635" lon="6.89173">
        <ele>897.92</ele>
        <time>2019-02-04T13:53:15.000Z</time>
      </trkpt>
      <trkpt lat="48.0465" lon="6.89154">
        <ele>921.31</ele>
        <time>2019-02-04T13:53:33.000Z</time>
      </trkpt>
      <trkpt lat="48.04692" lon="6.89193">
        <ele>927.26</ele>
        <time>2019-02-04T13:53:51.000Z</time>
      </trkpt>
      <trkpt lat="48.04689" lon="6.89173">
        <ele>933.07</ele>
        <time>2019-02-04T13:54:09.000Z</time>
      </trkpt>
      <trkpt lat="48.04691" lon="6.89162">
        <ele>931.8</ele>
        <time>2019-02-04T13:54:27.000Z</time>
      </trkpt>
      <trkpt lat="48.04699" lon="6.89139">
        <ele>917.43</ele>
        <time>2019-02-04T13:54:45.000Z</time>
      </trkpt>
      <trkpt lat="48.04716" lon="6.89137">
        <ele>920.23</ele>
        <time>2019-02-04T13:55:03.000Z</time>
      </trkpt>
      <trkpt lat="48.04729" lon="6.89105">
        <ele>914.2</ele>
        <time>2019-02-04T13:55:21.000Z</time>
      </trkpt>
      <trkpt lat="48.04714" lon="6.89111">
        <ele>911.34</ele>
        <time>2019-02-04T13:55:39.000Z</time>
      </trkpt>
      <trkpt lat="48.04741" lon="6.89117">
        <ele>919.58</ele>
        <time>2019-02-04T13:55:57.000Z</time>
      </trkpt>
      <trkpt lat="48.04754" lon="6.89107">
        <ele>908.88</ele>
        <time>2019-02-04T13:56:15.000Z</time>
      </trkpt>
      <trkpt lat="48.04741" lon="6.89075">
        <ele>907.98</ele>
        <time>2019-02-04T13:56:33.000Z</time>
      </trkpt>
      <trkpt lat="48.04769" lon="6.89074">
        <ele>856.53</ele>
        <time>2019-02-04T13:56:51.000Z</time>
      </trkpt>
      <trkpt lat="48.04782" lon="6.89078">
        <ele>892.82</ele>
        <time>2019-02-04T13:57:09.000Z</time>
      </trkpt>
      <trkpt lat="48.04783" lon="6.8904">
        <ele>929.96</ele>
        <time>2019-02-04T13:57:27.000Z</time>
      </trkpt>
      <trkpt lat="48.0479" lon="6.89027">
        <ele>931.77</ele>
        <time>2019-02-04T13:57:45.000Z</time>
      </trkpt>
      <trkpt lat="48.04798" lon="6.8903">
        <ele>932.35</ele>
        <time>2019-02-04T13:58:03.000Z</time>
      </trkpt>
      <trkpt lat="48.04807" lon="6.89027">
        <ele>939.8</ele>
        <time>2019-02-04T13:58:21.000Z</time>
      </trkpt>
      <trkpt lat="48.04843" lon="6.89005">
        <ele>850.21</ele>
        <time>2019-02-04T13:58:40.000Z</time>
      </trkpt>
      <trkpt lat="48.04865" lon="6.89017">
        <ele>940.4</ele>
        <time>2019-02-04T13:58:59.000Z</time>
      </trkpt>
      <trkpt lat="48.04886" lon="6.89004">
        <ele>912.1</ele>
        <time>2019-02-04T13:59:17.000Z</time>
      </trkpt>
      <trkpt lat="48.04887" lon="6.89">
        <ele>940.12</ele>
        <time>2019-02-04T13:59:36.000Z</time>
      </trkpt>
      <trkpt lat="48.04899" lon="6.88996">
        <ele>929.6</ele>
        <time>2019-02-04T13:59:55.000Z</time>
      </trkpt>
      <trkpt lat="48.04907" lon="6.88991">
        <ele>945.17</ele>
        <time>2019-02-04T14:00:14.000Z</time>
      </trkpt>
      <trkpt lat="48.04905" lon="6.88994">
        <ele>949.24</ele>
        <time>2019-02-04T14:00:32.000Z</time>
      </trkpt>
      <trkpt lat="48.04908" lon="6.89011">
        <ele>971.65</ele>
        <time>2019-02-04T14:00:50.000Z</time>
      </trkpt>
      <trkpt lat="48.04906" lon="6.89035">
        <ele>928.92</ele>
        <time>2019-02-04T14:01:08.000Z</time>
      </trkpt>
      <trkpt lat="48.04891" lon="6.89059">
        <ele>930.17</ele>
        <time>2019-02-04T14:01:26.000Z</time>
      </trkpt>
      <trkpt lat="48.04875" lon="6.89063">
        <ele>946.89</ele>
        <time>2019-02-04T14:01:44.000Z</time>
      </trkpt>
      <trkpt lat="48.04888" lon="6.89072">
        <ele>964.34</ele>
        <time>2019-02-04T14:02:02.000Z</time>
      </trkpt>
      <trkpt lat="48.04896" lon="6.89071">
        <ele>954.25</ele>
        <time>2019-02-04T14:02:20.000Z</time>
      </trkpt>
      <trkpt lat="48.04894" lon="6.89079">
        <ele>950.05</ele>
        <time>2019-02-04T14:02:38.000Z</time>
      </trkpt>
      <trkpt lat="48.04901" lon="6.89079">
        <ele>958.72</ele>
        <time>2019-02-04T14:02:57.000Z</time>
      </trkpt>
      <trkpt lat="48.04904" lon="6.89072">
        <ele>962.41</ele>
        <time>2019-02-04T14:03:15.000Z</time>
      </trkpt>
      <trkpt lat="48.04944" lon="6.89108">
        <ele>967.22</ele>
        <time>2019-02-04T14:03:34.000Z</time>
      </trkpt>
      <trkpt lat="48.04924" lon="6.89124">
        <ele>952.72</ele>
        <time>2019-02-04T14:03:52.000Z</time>
      </trkpt>
      <trkpt lat="48.04935" lon="6.8915">
        <ele>965.64</ele>
        <time>2019-02-04T14:04:11.000Z</time>
      </trkpt>
      <trkpt lat="48.04926" lon="6.89141">
        <ele>976.61</ele>
        <time>2019-02-04T14:04:29.000Z</time>
      </trkpt>
      <trkpt lat="48.04943" lon="6.89171">
        <ele>982.3</ele>
        <time>2019-02-04T14:04:47.000Z</time>
      </trkpt>
      <trkpt lat="48.04942" lon="6.89192">
        <ele>989.66</ele>
        <time>2019-02-04T14:05:05.000Z</time>
      </trkpt>
      <trkpt lat="48.04958" lon="6.89195">
        <ele>977.53</ele>
        <time>2019-02-04T14:05:23.000Z</time>
      </trkpt>
      <trkpt lat="48.04954" lon="6.89207">
        <ele>974.9</ele>
        <time>2019-02-04T14:05:41.000Z</time>
      </trkpt>
      <trkpt lat="48.04953" lon="6.89229">
        <ele>965.06</ele>
        <time>2019-02-04T14:05:59.000Z</time>
      </trkpt>
      <trkpt lat="48.04973" lon="6.89232">
        <ele>965.62</ele>
        <time>2019-02-04T14:06:17.000Z</time>
      </trkpt>
      <trkpt lat="48.04991" lon="6.89243">
        <ele>977.85</ele>
        <time>2019-02-04T14:06:35.000Z</time>
      </trkpt>
      <trkpt lat="48.04981" lon="6.89256">
        <ele>991.58</ele>
        <time>2019-02-04T14:06:54.000Z</time>
      </trkpt>
      <trkpt lat="48.04979" lon="6.89256">
        <ele>991.68</ele>
        <time>2019-02-04T14:07:12.000Z</time>
      </trkpt>
      <trkpt lat="48.0498" lon="6.89254">
        <ele>986.14</ele>
        <time>2019-02-04T14:07:46.000Z</time>
      </trkpt>
      <trkpt lat="48.04992" lon="6.89262">
        <ele>973.43</ele>
        <time>2019-02-04T14:08:04.000Z</time>
      </trkpt>
      <trkpt lat="48.0502" lon="6.89256">
        <ele>976.68</ele>
        <time>2019-02-04T14:08:22.000Z</time>
      </trkpt>
      <trkpt lat="48.05032" lon="6.89229">
        <ele>968.5</ele>
        <time>2019-02-04T14:08:40.000Z</time>
      </trkpt>
      <trkpt lat="48.05052" lon="6.89262">
        <ele>966.15</ele>
        <time>2019-02-04T14:08:59.000Z</time>
      </trkpt>
      <trkpt lat="48.05092" lon="6.89254">
        <ele>991.09</ele>
        <time>2019-02-04T14:09:17.000Z</time>
      </trkpt>
      <trkpt lat="48.05108" lon="6.89224">
        <ele>991.43</ele>
        <time>2019-02-04T14:09:36.000Z</time>
      </trkpt>
      <trkpt lat="48.0511" lon="6.89237">
        <ele>988.43</ele>
        <time>2019-02-04T14:09:54.000Z</time>
      </trkpt>
      <trkpt lat="48.0513" lon="6.89216">
        <ele>988.94</ele>
        <time>2019-02-04T14:10:13.000Z</time>
      </trkpt>
      <trkpt lat="48.0514" lon="6.89198">
        <ele>987.82</ele>
        <time>2019-02-04T14:10:31.000Z</time>
      </trkpt>
      <trkpt lat="48.05144" lon="6.89183">
        <ele>980.23</ele>
        <time>2019-02-04T14:10:49.000Z</time>
      </trkpt>
      <trkpt lat="48.05143" lon="6.89189">
        <ele>979.05</ele>
        <time>2019-02-04T14:11:05.000Z</time>
      </trkpt>
      <trkpt lat="48.05145" lon="6.89192">
        <ele>982.79</ele>
        <time>2019-02-04T14:11:27.000Z</time>
      </trkpt>
      <trkpt lat="48.05148" lon="6.8919">
        <ele>988.7</ele>
        <time>2019-02-04T14:12:03.000Z</time>
      </trkpt>
      <trkpt lat="48.05147" lon="6.89184">
        <ele>989.8</ele>
        <time>2019-02-04T14:12:39.000Z</time>
      </trkpt>
      <trkpt lat="48.05148" lon="6.89186">
        <ele>989.54</ele>
        <time>2019-02-04T14:12:56.000Z</time>
      </trkpt>
      <trkpt lat="48.05151" lon="6.89173">
        <ele>1000.91</ele>
        <time>2019-02-04T14:13:31.000Z</time>
      </trkpt>
      <trkpt lat="48.05167" lon="6.89155">
        <ele>1007.93</ele>
        <time>2019-02-04T14:13:49.000Z</time>
      </trkpt>
      <trkpt lat="48.05168" lon="6.8917">
        <ele>986.69</ele>
        <time>2019-02-04T14:14:07.000Z</time>
      </trkpt>
      <trkpt lat="48.05168" lon="6.89171">
        <ele>994.35</ele>
        <time>2019-02-04T14:14:25.000Z</time>
      </trkpt>
      <trkpt lat="48.05165" lon="6.8917">
        <ele>992.69</ele>
        <time>2019-02-04T14:14:43.000Z</time>
      </trkpt>
      <trkpt lat="48.05162" lon="6.89156">
        <ele>981.84</ele>
        <time>2019-02-04T14:15:00.000Z</time>
      </trkpt>
      <trkpt lat="48.0516" lon="6.89181">
        <ele>985.62</ele>
        <time>2019-02-04T14:15:18.000Z</time>
      </trkpt>
      <trkpt lat="48.05159" lon="6.89175">
        <ele>987.04</ele>
        <time>2019-02-04T14:15:35.000Z</time>
      </trkpt>
      <trkpt lat="48.05163" lon="6.89163">
        <ele>996.6</ele>
        <time>2019-02-04T14:15:53.000Z</time>
      </trkpt>
      <trkpt lat="48.05165" lon="6.8916">
        <ele>1000.08</ele>
        <time>2019-02-04T14:16:10.000Z</time>
      </trkpt>
      <trkpt lat="48.05181" lon="6.89114">
        <ele>1017.7</ele>
        <time>2019-02-04T14:16:46.000Z</time>
      </trkpt>
      <trkpt lat="48.05195" lon="6.89102">
        <ele>1019.03</ele>
        <time>2019-02-04T14:17:04.000Z</time>
      </trkpt>
      <trkpt lat="48.0521" lon="6.89107">
        <ele>1008.18</ele>
        <time>2019-02-04T14:17:22.000Z</time>
      </trkpt>
      <trkpt lat="48.05226" lon="6.89098">
        <ele>1007.81</ele>
        <time>2019-02-04T14:17:40.000Z</time>
      </trkpt>
      <trkpt lat="48.0524" lon="6.89064">
        <ele>1015.97</ele>
        <time>2019-02-04T14:17:58.000Z</time>
      </trkpt>
      <trkpt lat="48.05249" lon="6.89036">
        <ele>1012.85</ele>
        <time>2019-02-04T14:18:16.000Z</time>
      </trkpt>
      <trkpt lat="48.05259" lon="6.89019">
        <ele>1019.66</ele>
        <time>2019-02-04T14:18:34.000Z</time>
      </trkpt>
      <trkpt lat="48.05271" lon="6.89001">
        <ele>1020.17</ele>
        <time>2019-02-04T14:18:52.000Z</time>
      </trkpt>
      <trkpt lat="48.05286" lon="6.88973">
        <ele>1023.89</ele>
        <time>2019-02-04T14:19:10.000Z</time>
      </trkpt>
      <trkpt lat="48.05282" lon="6.88959">
        <ele>1020.49</ele>
        <time>2019-02-04T14:19:28.000Z</time>
      </trkpt>
      <trkpt lat="48.0529" lon="6.88984">
        <ele>1006.43</ele>
        <time>2019-02-04T14:19:47.000Z</time>
      </trkpt>
      <trkpt lat="48.0529" lon="6.88974">
        <ele>1004.87</ele>
        <time>2019-02-04T14:20:05.000Z</time>
      </trkpt>
      <trkpt lat="48.05284" lon="6.88955">
        <ele>1004.93</ele>
        <time>2019-02-04T14:20:23.000Z</time>
      </trkpt>
      <trkpt lat="48.05282" lon="6.88953">
        <ele>1005.87</ele>
        <time>2019-02-04T14:20:41.000Z</time>
      </trkpt>
      <trkpt lat="48.05288" lon="6.88975">
        <ele>1003.36</ele>
        <time>2019-02-04T14:20:59.000Z</time>
      </trkpt>
      <trkpt lat="48.05287" lon="6.88979">
        <ele>1002.31</ele>
        <time>2019-02-04T14:21:17.000Z</time>
      </trkpt>
      <trkpt lat="48.05289" lon="6.8898">
        <ele>1004.16</ele>
        <time>2019-02-04T14:21:35.000Z</time>
      </trkpt>
      <trkpt lat="48.05288" lon="6.88984">
        <ele>1004.76</ele>
        <time>2019-02-04T14:21:53.000Z</time>
      </trkpt>
      <trkpt lat="48.05287" lon="6.88983">
        <ele>1006.75</ele>
        <time>2019-02-04T14:22:11.000Z</time>
      </trkpt>
      <trkpt lat="48.05292" lon="6.88974">
        <ele>1008.82</ele>
        <time>2019-02-04T14:22:29.000Z</time>
      </trkpt>
      <trkpt lat="48.05302" lon="6.88968">
        <ele>1010.25</ele>
        <time>2019-02-04T14:22:47.000Z</time>
      </trkpt>
      <trkpt lat="48.05315" lon="6.88971">
        <ele>1010.66</ele>
        <time>2019-02-04T14:23:05.000Z</time>
      </trkpt>
      <trkpt lat="48.0532" lon="6.89001">
        <ele>1003.99</ele>
        <time>2019-02-04T14:23:23.000Z</time>
      </trkpt>
      <trkpt lat="48.05328" lon="6.89035">
        <ele>1002.99</ele>
        <time>2019-02-04T14:23:40.000Z</time>
      </trkpt>
      <trkpt lat="48.05327" lon="6.8904">
        <ele>913.14</ele>
        <time>2019-02-04T14:23:58.000Z</time>
      </trkpt>
      <trkpt lat="48.05327" lon="6.89041">
        <ele>935.11</ele>
        <time>2019-02-04T14:24:15.000Z</time>
      </trkpt>
      <trkpt lat="48.05305" lon="6.89141">
        <ele>952.94</ele>
        <time>2019-02-04T14:24:33.000Z</time>
      </trkpt>
      <trkpt lat="48.05309" lon="6.89151">
        <ele>999.41</ele>
        <time>2019-02-04T14:24:51.000Z</time>
      </trkpt>
      <trkpt lat="48.05311" lon="6.89182">
        <ele>985.23</ele>
        <time>2019-02-04T14:25:09.000Z</time>
      </trkpt>
      <trkpt lat="48.05308" lon="6.89206">
        <ele>1005</ele>
        <time>2019-02-04T14:25:27.000Z</time>
      </trkpt>
      <trkpt lat="48.053" lon="6.89227">
        <ele>1025.9</ele>
        <time>2019-02-04T14:25:45.000Z</time>
      </trkpt>
      <trkpt lat="48.05287" lon="6.89261">
        <ele>1043.15</ele>
        <time>2019-02-04T14:26:03.000Z</time>
      </trkpt>
      <trkpt lat="48.05279" lon="6.8924">
        <ele>1036.21</ele>
        <time>2019-02-04T14:26:21.000Z</time>
      </trkpt>
      <trkpt lat="48.05276" lon="6.89257">
        <ele>1024.38</ele>
        <time>2019-02-04T14:26:39.000Z</time>
      </trkpt>
      <trkpt lat="48.05269" lon="6.89269">
        <ele>1013.59</ele>
        <time>2019-02-04T14:26:57.000Z</time>
      </trkpt>
      <trkpt lat="48.05253" lon="6.89244">
        <ele>1014.29</ele>
        <time>2019-02-04T14:27:15.000Z</time>
      </trkpt>
      <trkpt lat="48.05255" lon="6.89247">
        <ele>1014.97</ele>
        <time>2019-02-04T14:27:30.634Z</time>
      </trkpt>
      <trkpt lat="48.05256" lon="6.8925">
        <ele>1016.36</ele>
        <time>2019-02-04T14:27:48.000Z</time>
      </trkpt>
      <trkpt lat="48.05276" lon="6.89285">
        <ele>1023.94</ele>
        <time>2019-02-04T14:28:23.000Z</time>
      </trkpt>
      <trkpt lat="48.05271" lon="6.89319">
        <ele>1043.62</ele>
        <time>2019-02-04T14:28:41.000Z</time>
      </trkpt>
      <trkpt lat="48.05249" lon="6.89332">
        <ele>1035.12</ele>
        <time>2019-02-04T14:28:59.000Z</time>
      </trkpt>
      <trkpt lat="48.05265" lon="6.89369">
        <ele>1045.85</ele>
        <time>2019-02-04T14:29:17.000Z</time>
      </trkpt>
      <trkpt lat="48.05247" lon="6.89392">
        <ele>1017.97</ele>
        <time>2019-02-04T14:29:35.000Z</time>
      </trkpt>
      <trkpt lat="48.05257" lon="6.89431">
        <ele>1018.95</ele>
        <time>2019-02-04T14:29:53.000Z</time>
      </trkpt>
      <trkpt lat="48.05232" lon="6.89445">
        <ele>1024.93</ele>
        <time>2019-02-04T14:30:11.000Z</time>
      </trkpt>
      <trkpt lat="48.05228" lon="6.89482">
        <ele>1028.54</ele>
        <time>2019-02-04T14:30:29.000Z</time>
      </trkpt>
      <trkpt lat="48.05226" lon="6.89482">
        <ele>1030.91</ele>
        <time>2019-02-04T14:30:44.626Z</time>
      </trkpt>
      <trkpt lat="48.05222" lon="6.89488">
        <ele>1031.48</ele>
        <time>2019-02-04T14:31:03.000Z</time>
      </trkpt>
      <trkpt lat="48.05192" lon="6.89561">
        <ele>1035.04</ele>
        <time>2019-02-04T14:31:21.000Z</time>
      </trkpt>
      <trkpt lat="48.0517" lon="6.89575">
        <ele>1027.15</ele>
        <time>2019-02-04T14:31:38.000Z</time>
      </trkpt>
      <trkpt lat="48.05155" lon="6.89597">
        <ele>1019.07</ele>
        <time>2019-02-04T14:31:56.000Z</time>
      </trkpt>
      <trkpt lat="48.05148" lon="6.89613">
        <ele>1019.31</ele>
        <time>2019-02-04T14:32:14.000Z</time>
      </trkpt>
      <trkpt lat="48.05119" lon="6.89617">
        <ele>1022.56</ele>
        <time>2019-02-04T14:32:32.000Z</time>
      </trkpt>
      <trkpt lat="48.05102" lon="6.89618">
        <ele>1028.21</ele>
        <time>2019-02-04T14:32:50.000Z</time>
      </trkpt>
      <trkpt lat="48.0507" lon="6.89634">
        <ele>1039.69</ele>
        <time>2019-02-04T14:33:08.000Z</time>
      </trkpt>
      <trkpt lat="48.05058" lon="6.89632">
        <ele>1042.35</ele>
        <time>2019-02-04T14:33:26.000Z</time>
      </trkpt>
      <trkpt lat="48.05043" lon="6.89632">
        <ele>1035.76</ele>
        <time>2019-02-04T14:33:44.000Z</time>
      </trkpt>
      <trkpt lat="48.05018" lon="6.89637">
        <ele>1036.94</ele>
        <time>2019-02-04T14:34:02.000Z</time>
      </trkpt>
      <trkpt lat="48.0501" lon="6.89666">
        <ele>1034.59</ele>
        <time>2019-02-04T14:34:20.000Z</time>
      </trkpt>
      <trkpt lat="48.04996" lon="6.89667">
        <ele>1033.87</ele>
        <time>2019-02-04T14:34:38.000Z</time>
      </trkpt>
      <trkpt lat="48.04979" lon="6.89707">
        <ele>1033.18</ele>
        <time>2019-02-04T14:34:56.000Z</time>
      </trkpt>
      <trkpt lat="48.04972" lon="6.89725">
        <ele>1036.91</ele>
        <time>2019-02-04T14:35:14.000Z</time>
      </trkpt>
      <trkpt lat="48.04965" lon="6.89739">
        <ele>1037.05</ele>
        <time>2019-02-04T14:35:32.000Z</time>
      </trkpt>
      <trkpt lat="48.04966" lon="6.89771">
        <ele>1022.93</ele>
        <time>2019-02-04T14:35:50.000Z</time>
      </trkpt>
      <trkpt lat="48.04966" lon="6.8981">
        <ele>1033.49</ele>
        <time>2019-02-04T14:36:08.000Z</time>
      </trkpt>
      <trkpt lat="48.0494" lon="6.89837">
        <ele>1045.36</ele>
        <time>2019-02-04T14:36:26.000Z</time>
      </trkpt>
      <trkpt lat="48.04934" lon="6.89861">
        <ele>1051.1</ele>
        <time>2019-02-04T14:36:44.000Z</time>
      </trkpt>
      <trkpt lat="48.04939" lon="6.89863">
        <ele>1028.92</ele>
        <time>2019-02-04T14:37:02.000Z</time>
      </trkpt>
      <trkpt lat="48.04925" lon="6.89895">
        <ele>1034.77</ele>
        <time>2019-02-04T14:37:20.000Z</time>
      </trkpt>
      <trkpt lat="48.04928" lon="6.89934">
        <ele>1039.01</ele>
        <time>2019-02-04T14:37:38.000Z</time>
      </trkpt>
      <trkpt lat="48.04913" lon="6.89969">
        <ele>1052.25</ele>
        <time>2019-02-04T14:37:56.000Z</time>
      </trkpt>
      <trkpt lat="48.04906" lon="6.9001">
        <ele>1058.22</ele>
        <time>2019-02-04T14:38:14.000Z</time>
      </trkpt>
      <trkpt lat="48.04902" lon="6.90037">
        <ele>1046.92</ele>
        <time>2019-02-04T14:38:32.000Z</time>
      </trkpt>
      <trkpt lat="48.04898" lon="6.90037">
        <ele>1028.64</ele>
        <time>2019-02-04T14:38:50.000Z</time>
      </trkpt>
      <trkpt lat="48.04897" lon="6.90083">
        <ele>1040.87</ele>
        <time>2019-02-04T14:39:08.000Z</time>
      </trkpt>
      <trkpt lat="48.04889" lon="6.90097">
        <ele>1042.8</ele>
        <time>2019-02-04T14:39:26.000Z</time>
      </trkpt>
      <trkpt lat="48.04875" lon="6.90141">
        <ele>1056.38</ele>
        <time>2019-02-04T14:39:44.000Z</time>
      </trkpt>
      <trkpt lat="48.04855" lon="6.90156">
        <ele>1047.78</ele>
        <time>2019-02-04T14:40:02.000Z</time>
      </trkpt>
      <trkpt lat="48.04858" lon="6.90175">
        <ele>1047.79</ele>
        <time>2019-02-04T14:40:20.000Z</time>
      </trkpt>
      <trkpt lat="48.04858" lon="6.90176">
        <ele>1049.26</ele>
        <time>2019-02-04T14:40:35.634Z</time>
      </trkpt>
      <trkpt lat="48.04854" lon="6.90233">
        <ele>1065.94</ele>
        <time>2019-02-04T14:40:54.000Z</time>
      </trkpt>
      <trkpt lat="48.0485" lon="6.90255">
        <ele>1049.1</ele>
        <time>2019-02-04T14:41:12.000Z</time>
      </trkpt>
      <trkpt lat="48.04858" lon="6.90293">
        <ele>1046.6</ele>
        <time>2019-02-04T14:41:30.000Z</time>
      </trkpt>
      <trkpt lat="48.04852" lon="6.90312">
        <ele>1072.84</ele>
        <time>2019-02-04T14:41:48.000Z</time>
      </trkpt>
      <trkpt lat="48.04852" lon="6.90329">
        <ele>1082.8</ele>
        <time>2019-02-04T14:42:06.000Z</time>
      </trkpt>
      <trkpt lat="48.04843" lon="6.90363">
        <ele>1074.17</ele>
        <time>2019-02-04T14:42:24.000Z</time>
      </trkpt>
      <trkpt lat="48.04845" lon="6.90373">
        <ele>1055.59</ele>
        <time>2019-02-04T14:42:42.000Z</time>
      </trkpt>
      <trkpt lat="48.04846" lon="6.90418">
        <ele>1055.94</ele>
        <time>2019-02-04T14:43:00.000Z</time>
      </trkpt>
      <trkpt lat="48.04834" lon="6.90434">
        <ele>1065.99</ele>
        <time>2019-02-04T14:43:18.000Z</time>
      </trkpt>
      <trkpt lat="48.04849" lon="6.90459">
        <ele>1052.02</ele>
        <time>2019-02-04T14:43:36.000Z</time>
      </trkpt>
      <trkpt lat="48.04846" lon="6.90448">
        <ele>1035.98</ele>
        <time>2019-02-04T14:43:54.000Z</time>
      </trkpt>
      <trkpt lat="48.0484" lon="6.90479">
        <ele>1041.86</ele>
        <time>2019-02-04T14:44:12.000Z</time>
      </trkpt>
      <trkpt lat="48.04846" lon="6.90505">
        <ele>1038.06</ele>
        <time>2019-02-04T14:44:30.000Z</time>
      </trkpt>
      <trkpt lat="48.04839" lon="6.9054">
        <ele>1056.46</ele>
        <time>2019-02-04T14:44:48.000Z</time>
      </trkpt>
      <trkpt lat="48.04837" lon="6.90568">
        <ele>1086.29</ele>
        <time>2019-02-04T14:45:06.000Z</time>
      </trkpt>
      <trkpt lat="48.04841" lon="6.90603">
        <ele>1077.17</ele>
        <time>2019-02-04T14:45:24.000Z</time>
      </trkpt>
      <trkpt lat="48.04832" lon="6.90607">
        <ele>1066.11</ele>
        <time>2019-02-04T14:45:42.000Z</time>
      </trkpt>
      <trkpt lat="48.04832" lon="6.90642">
        <ele>1071.31</ele>
        <time>2019-02-04T14:46:00.000Z</time>
      </trkpt>
      <trkpt lat="48.04827" lon="6.90656">
        <ele>1070.91</ele>
        <time>2019-02-04T14:46:18.000Z</time>
      </trkpt>
      <trkpt lat="48.04828" lon="6.90658">
        <ele>1068.43</ele>
        <time>2019-02-04T14:46:35.000Z</time>
      </trkpt>
      <trkpt lat="48.04794" lon="6.9073">
        <ele>1084.73</ele>
        <time>2019-02-04T14:46:53.000Z</time>
      </trkpt>
      <trkpt lat="48.04787" lon="6.90715">
        <ele>1082.55</ele>
        <time>2019-02-04T14:47:11.000Z</time>
      </trkpt>
      <trkpt lat="48.04787" lon="6.90718">
        <ele>1080.98</ele>
        <time>2019-02-04T14:47:26.636Z</time>
      </trkpt>
      <trkpt lat="48.04786" lon="6.90727">
        <ele>1074.76</ele>
        <time>2019-02-04T14:47:45.000Z</time>
      </trkpt>
      <trkpt lat="48.04786" lon="6.90743">
        <ele>1088.24</ele>
        <time>2019-02-04T14:48:02.000Z</time>
      </trkpt>
      <trkpt lat="48.04768" lon="6.90786">
        <ele>1090.09</ele>
        <time>2019-02-04T14:48:20.000Z</time>
      </trkpt>
      <trkpt lat="48.04765" lon="6.90811">
        <ele>1097.04</ele>
        <time>2019-02-04T14:48:38.000Z</time>
      </trkpt>
      <trkpt lat="48.04756" lon="6.90831">
        <ele>1082.47</ele>
        <time>2019-02-04T14:48:56.000Z</time>
      </trkpt>
      <trkpt lat="48.04756" lon="6.90832">
        <ele>1082.49</ele>
        <time>2019-02-04T14:49:11.640Z</time>
      </trkpt>
      <trkpt lat="48.04754" lon="6.90835">
        <ele>1073.73</ele>
        <time>2019-02-04T14:49:30.000Z</time>
      </trkpt>
      <trkpt lat="48.04752" lon="6.90836">
        <ele>1068.9</ele>
        <time>2019-02-04T14:49:48.000Z</time>
      </trkpt>
      <trkpt lat="48.04701" lon="6.90885">
        <ele>1063.35</ele>
        <time>2019-02-04T14:50:06.000Z</time>
      </trkpt>
      <trkpt lat="48.0469" lon="6.90917">
        <ele>1088.09</ele>
        <time>2019-02-04T14:50:24.000Z</time>
      </trkpt>
      <trkpt lat="48.04669" lon="6.90931">
        <ele>1094.82</ele>
        <time>2019-02-04T14:50:42.000Z</time>
      </trkpt>
      <trkpt lat="48.04658" lon="6.90937">
        <ele>1082.36</ele>
        <time>2019-02-04T14:51:00.000Z</time>
      </trkpt>
      <trkpt lat="48.04654" lon="6.90928">
        <ele>1087.69</ele>
        <time>2019-02-04T14:51:18.000Z</time>
      </trkpt>
      <trkpt lat="48.04648" lon="6.90933">
        <ele>1077.28</ele>
        <time>2019-02-04T14:51:36.000Z</time>
      </trkpt>
      <trkpt lat="48.0464" lon="6.90963">
        <ele>1065.36</ele>
        <time>2019-02-04T14:51:54.000Z</time>
      </trkpt>
      <trkpt lat="48.04624" lon="6.90978">
        <ele>1047.89</ele>
        <time>2019-02-04T14:52:12.000Z</time>
      </trkpt>
      <trkpt lat="48.04616" lon="6.9101">
        <ele>1046.71</ele>
        <time>2019-02-04T14:52:30.000Z</time>
      </trkpt>
      <trkpt lat="48.04596" lon="6.91015">
        <ele>1063.79</ele>
        <time>2019-02-04T14:52:48.000Z</time>
      </trkpt>
      <trkpt lat="48.04587" lon="6.91052">
        <ele>1069.53</ele>
        <time>2019-02-04T14:53:06.000Z</time>
      </trkpt>
      <trkpt lat="48.04582" lon="6.91092">
        <ele>1054.05</ele>
        <time>2019-02-04T14:53:24.000Z</time>
      </trkpt>
      <trkpt lat="48.04569" lon="6.91109">
        <ele>1058.45</ele>
        <time>2019-02-04T14:53:42.000Z</time>
      </trkpt>
      <trkpt lat="48.04569" lon="6.91112">
        <ele>1058.87</ele>
        <time>2019-02-04T14:53:59.000Z</time>
      </trkpt>
      <trkpt lat="48.04565" lon="6.91123">
        <ele>1067.89</ele>
        <time>2019-02-04T14:54:17.000Z</time>
      </trkpt>
      <trkpt lat="48.04564" lon="6.91127">
        <ele>1068.36</ele>
        <time>2019-02-04T14:54:34.000Z</time>
      </trkpt>
      <trkpt lat="48.04514" lon="6.91167">
        <ele>1057.34</ele>
        <time>2019-02-04T14:55:09.000Z</time>
      </trkpt>
      <trkpt lat="48.04497" lon="6.91172">
        <ele>1060.05</ele>
        <time>2019-02-04T14:55:27.000Z</time>
      </trkpt>
      <trkpt lat="48.04477" lon="6.91174">
        <ele>1069.99</ele>
        <time>2019-02-04T14:55:45.000Z</time>
      </trkpt>
      <trkpt lat="48.04462" lon="6.91204">
        <ele>1073.69</ele>
        <time>2019-02-04T14:56:03.000Z</time>
      </trkpt>
      <trkpt lat="48.04442" lon="6.91231">
        <ele>1065.02</ele>
        <time>2019-02-04T14:56:21.000Z</time>
      </trkpt>
      <trkpt lat="48.04432" lon="6.91243">
        <ele>1073.18</ele>
        <time>2019-02-04T14:56:39.000Z</time>
      </trkpt>
      <trkpt lat="48.0443" lon="6.91245">
        <ele>1069.41</ele>
        <time>2019-02-04T14:56:56.000Z</time>
      </trkpt>
      <trkpt lat="48.0442" lon="6.91254">
        <ele>1075.57</ele>
        <time>2019-02-04T14:57:14.000Z</time>
      </trkpt>
      <trkpt lat="48.0439" lon="6.9124">
        <ele>1069.3</ele>
        <time>2019-02-04T14:57:32.000Z</time>
      </trkpt>
      <trkpt lat="48.04368" lon="6.91255">
        <ele>1069.67</ele>
        <time>2019-02-04T14:57:50.000Z</time>
      </trkpt>
      <trkpt lat="48.04344" lon="6.91242">
        <ele>1063.34</ele>
        <time>2019-02-04T14:58:08.000Z</time>
      </trkpt>
      <trkpt lat="48.04322" lon="6.91236">
        <ele>1075.07</ele>
        <time>2019-02-04T14:58:26.000Z</time>
      </trkpt>
      <trkpt lat="48.04338" lon="6.91264">
        <ele>1053.33</ele>
        <time>2019-02-04T14:58:44.000Z</time>
      </trkpt>
      <trkpt lat="48.0433" lon="6.91251">
        <ele>1053.14</ele>
        <time>2019-02-04T14:59:02.000Z</time>
      </trkpt>
      <trkpt lat="48.0433" lon="6.91256">
        <ele>1048.25</ele>
        <time>2019-02-04T14:59:17.616Z</time>
      </trkpt>
      <trkpt lat="48.04281" lon="6.91269">
        <ele>1065.4</ele>
        <time>2019-02-04T14:59:36.000Z</time>
      </trkpt>
      <trkpt lat="48.04262" lon="6.91281">
        <ele>1075.73</ele>
        <time>2019-02-04T14:59:54.000Z</time>
      </trkpt>
      <trkpt lat="48.04246" lon="6.91269">
        <ele>1065.87</ele>
        <time>2019-02-04T15:00:11.000Z</time>
      </trkpt>
      <trkpt lat="48.04224" lon="6.91265">
        <ele>1041.8</ele>
        <time>2019-02-04T15:00:29.000Z</time>
      </trkpt>
      <trkpt lat="48.04222" lon="6.91267">
        <ele>1045.95</ele>
        <time>2019-02-04T15:00:46.000Z</time>
      </trkpt>
      <trkpt lat="48.04181" lon="6.91268">
        <ele>935.76</ele>
        <time>2019-02-04T15:01:04.000Z</time>
      </trkpt>
      <trkpt lat="48.04148" lon="6.91232">
        <ele>1029.42</ele>
        <time>2019-02-04T15:01:21.000Z</time>
      </trkpt>
      <trkpt lat="48.04145" lon="6.91237">
        <ele>861.85</ele>
        <time>2019-02-04T15:01:39.000Z</time>
      </trkpt>
      <trkpt lat="48.04137" lon="6.91226">
        <ele>982.76</ele>
        <time>2019-02-04T15:01:57.000Z</time>
      </trkpt>
      <trkpt lat="48.04129" lon="6.9121">
        <ele>1014.89</ele>
        <time>2019-02-04T15:02:15.000Z</time>
      </trkpt>
      <trkpt lat="48.04125" lon="6.912">
        <ele>1028.72</ele>
        <time>2019-02-04T15:02:33.000Z</time>
      </trkpt>
      <trkpt lat="48.04133" lon="6.91171">
        <ele>1031.9</ele>
        <time>2019-02-04T15:02:51.000Z</time>
      </trkpt>
      <trkpt lat="48.04133" lon="6.91141">
        <ele>1041.41</ele>
        <time>2019-02-04T15:03:09.000Z</time>
      </trkpt>
      <trkpt lat="48.04133" lon="6.91109">
        <ele>1047.02</ele>
        <time>2019-02-04T15:03:27.000Z</time>
      </trkpt>
      <trkpt lat="48.04107" lon="6.91066">
        <ele>1045.41</ele>
        <time>2019-02-04T15:03:45.000Z</time>
      </trkpt>
      <trkpt lat="48.04109" lon="6.91065">
        <ele>1029.64</ele>
        <time>2019-02-04T15:04:03.000Z</time>
      </trkpt>
      <trkpt lat="48.04104" lon="6.91049">
        <ele>1021.73</ele>
        <time>2019-02-04T15:04:21.000Z</time>
      </trkpt>
      <trkpt lat="48.04111" lon="6.91036">
        <ele>1024.67</ele>
        <time>2019-02-04T15:04:38.000Z</time>
      </trkpt>
      <trkpt lat="48.0409" lon="6.91011">
        <ele>1019.72</ele>
        <time>2019-02-04T15:04:56.000Z</time>
      </trkpt>
      <trkpt lat="48.04107" lon="6.91037">
        <ele>1004.14</ele>
        <time>2019-02-04T15:05:14.000Z</time>
      </trkpt>
      <trkpt lat="48.04139" lon="6.91017">
        <ele>1002.49</ele>
        <time>2019-02-04T15:05:32.000Z</time>
      </trkpt>
      <trkpt lat="48.04138" lon="6.91011">
        <ele>1008.86</ele>
        <time>2019-02-04T15:05:51.000Z</time>
      </trkpt>
      <trkpt lat="48.0414" lon="6.91006">
        <ele>1014.38</ele>
        <time>2019-02-04T15:06:10.000Z</time>
      </trkpt>
      <trkpt lat="48.04142" lon="6.91001">
        <ele>1006.24</ele>
        <time>2019-02-04T15:06:29.000Z</time>
      </trkpt>
      <trkpt lat="48.04155" lon="6.90944">
        <ele>1021.04</ele>
        <time>2019-02-04T15:06:46.000Z</time>
      </trkpt>
      <trkpt lat="48.0415" lon="6.9091">
        <ele>1010.93</ele>
        <time>2019-02-04T15:07:05.000Z</time>
      </trkpt>
      <trkpt lat="48.04164" lon="6.90906">
        <ele>1018.26</ele>
        <time>2019-02-04T15:07:24.000Z</time>
      </trkpt>
      <trkpt lat="48.04172" lon="6.90878">
        <ele>1033.68</ele>
        <time>2019-02-04T15:07:43.000Z</time>
      </trkpt>
      <trkpt lat="48.04175" lon="6.90875">
        <ele>1021.16</ele>
        <time>2019-02-04T15:08:01.000Z</time>
      </trkpt>
      <trkpt lat="48.04178" lon="6.90868">
        <ele>1013.48</ele>
        <time>2019-02-04T15:08:19.000Z</time>
      </trkpt>
      <trkpt lat="48.04188" lon="6.90864">
        <ele>995.48</ele>
        <time>2019-02-04T15:08:38.000Z</time>
      </trkpt>
      <trkpt lat="48.04202" lon="6.90849">
        <ele>991.52</ele>
        <time>2019-02-04T15:08:57.000Z</time>
      </trkpt>
      <trkpt lat="48.04215" lon="6.90843">
        <ele>1009.72</ele>
        <time>2019-02-04T15:09:16.000Z</time>
      </trkpt>
      <trkpt lat="48.04212" lon="6.9083">
        <ele>1003.58</ele>
        <time>2019-02-04T15:09:36.000Z</time>
      </trkpt>
      <trkpt lat="48.04216" lon="6.90802">
        <ele>1006.44</ele>
        <time>2019-02-04T15:09:54.000Z</time>
      </trkpt>
      <trkpt lat="48.04235" lon="6.9077">
        <ele>993.86</ele>
        <time>2019-02-04T15:10:12.000Z</time>
      </trkpt>
      <trkpt lat="48.04252" lon="6.90771">
        <ele>987.62</ele>
        <time>2019-02-04T15:10:31.000Z</time>
      </trkpt>
      <trkpt lat="48.04257" lon="6.90751">
        <ele>994.62</ele>
        <time>2019-02-04T15:10:50.000Z</time>
      </trkpt>
      <trkpt lat="48.04261" lon="6.90739">
        <ele>1004.41</ele>
        <time>2019-02-04T15:11:09.000Z</time>
      </trkpt>
      <trkpt lat="48.04262" lon="6.90719">
        <ele>1006.65</ele>
        <time>2019-02-04T15:11:44.000Z</time>
      </trkpt>
      <trkpt lat="48.04264" lon="6.90714">
        <ele>1006.31</ele>
        <time>2019-02-04T15:12:02.000Z</time>
      </trkpt>
      <trkpt lat="48.04287" lon="6.90689">
        <ele>983.61</ele>
        <time>2019-02-04T15:12:21.000Z</time>
      </trkpt>
      <trkpt lat="48.04284" lon="6.90652">
        <ele>969.9</ele>
        <time>2019-02-04T15:12:40.000Z</time>
      </trkpt>
      <trkpt lat="48.04306" lon="6.9064">
        <ele>930.31</ele>
        <time>2019-02-04T15:12:58.000Z</time>
      </trkpt>
      <trkpt lat="48.04303" lon="6.9062">
        <ele>967.4</ele>
        <time>2019-02-04T15:13:16.000Z</time>
      </trkpt>
      <trkpt lat="48.04292" lon="6.90622">
        <ele>963.42</ele>
        <time>2019-02-04T15:13:34.000Z</time>
      </trkpt>
      <trkpt lat="48.04295" lon="6.90622">
        <ele>971.18</ele>
        <time>2019-02-04T15:13:52.000Z</time>
      </trkpt>
      <trkpt lat="48.04297" lon="6.90616">
        <ele>977.25</ele>
        <time>2019-02-04T15:14:10.000Z</time>
      </trkpt>
      <trkpt lat="48.04299" lon="6.90552">
        <ele>1004</ele>
        <time>2019-02-04T15:14:28.000Z</time>
      </trkpt>
      <trkpt lat="48.04304" lon="6.90587">
        <ele>988.88</ele>
        <time>2019-02-04T15:14:46.000Z</time>
      </trkpt>
      <trkpt lat="48.04296" lon="6.90563">
        <ele>996.74</ele>
        <time>2019-02-04T15:15:04.000Z</time>
      </trkpt>
      <trkpt lat="48.04303" lon="6.90536">
        <ele>993.3</ele>
        <time>2019-02-04T15:15:22.000Z</time>
      </trkpt>
      <trkpt lat="48.0431" lon="6.90518">
        <ele>993.76</ele>
        <time>2019-02-04T15:15:40.000Z</time>
      </trkpt>
      <trkpt lat="48.0431" lon="6.9051">
        <ele>997.25</ele>
        <time>2019-02-04T15:15:59.000Z</time>
      </trkpt>
      <trkpt lat="48.04309" lon="6.90474">
        <ele>1000.03</ele>
        <time>2019-02-04T15:16:18.000Z</time>
      </trkpt>
      <trkpt lat="48.0433" lon="6.90481">
        <ele>989.76</ele>
        <time>2019-02-04T15:16:38.000Z</time>
      </trkpt>
      <trkpt lat="48.04316" lon="6.90463">
        <ele>986.47</ele>
        <time>2019-02-04T15:16:57.000Z</time>
      </trkpt>
      <trkpt lat="48.04316" lon="6.90461">
        <ele>985.2</ele>
        <time>2019-02-04T15:17:14.000Z</time>
      </trkpt>
      <trkpt lat="48.04319" lon="6.90455">
        <ele>987.93</ele>
        <time>2019-02-04T15:17:31.000Z</time>
      </trkpt>
      <trkpt lat="48.04329" lon="6.90446">
        <ele>973.99</ele>
        <time>2019-02-04T15:17:49.000Z</time>
      </trkpt>
      <trkpt lat="48.04316" lon="6.90404">
        <ele>976.62</ele>
        <time>2019-02-04T15:18:08.000Z</time>
      </trkpt>
      <trkpt lat="48.043" lon="6.90379">
        <ele>970.09</ele>
        <time>2019-02-04T15:18:26.000Z</time>
      </trkpt>
      <trkpt lat="48.04309" lon="6.90335">
        <ele>979.56</ele>
        <time>2019-02-04T15:18:45.000Z</time>
      </trkpt>
      <trkpt lat="48.04333" lon="6.90326">
        <ele>980.1</ele>
        <time>2019-02-04T15:19:04.000Z</time>
      </trkpt>
      <trkpt lat="48.04345" lon="6.90313">
        <ele>899.52</ele>
        <time>2019-02-04T15:19:23.000Z</time>
      </trkpt>
      <trkpt lat="48.04345" lon="6.90275">
        <ele>973.26</ele>
        <time>2019-02-04T15:19:42.000Z</time>
      </trkpt>
      <trkpt lat="48.04353" lon="6.90256">
        <ele>971.5</ele>
        <time>2019-02-04T15:20:01.000Z</time>
      </trkpt>
      <trkpt lat="48.04369" lon="6.90238">
        <ele>977.52</ele>
        <time>2019-02-04T15:20:19.000Z</time>
      </trkpt>
      <trkpt lat="48.04371" lon="6.90225">
        <ele>975.01</ele>
        <time>2019-02-04T15:20:37.000Z</time>
      </trkpt>
      <trkpt lat="48.04391" lon="6.90172">
        <ele>969.79</ele>
        <time>2019-02-04T15:20:56.000Z</time>
      </trkpt>
      <trkpt lat="48.04417" lon="6.90143">
        <ele>981.01</ele>
        <time>2019-02-04T15:21:15.000Z</time>
      </trkpt>
      <trkpt lat="48.04401" lon="6.90149">
        <ele>973.58</ele>
        <time>2019-02-04T15:21:33.000Z</time>
      </trkpt>
      <trkpt lat="48.04388" lon="6.90135">
        <ele>952.49</ele>
        <time>2019-02-04T15:21:51.000Z</time>
      </trkpt>
      <trkpt lat="48.04374" lon="6.90112">
        <ele>970.72</ele>
        <time>2019-02-04T15:22:09.000Z</time>
      </trkpt>
      <trkpt lat="48.04357" lon="6.9012">
        <ele>966.79</ele>
        <time>2019-02-04T15:22:26.000Z</time>
      </trkpt>
      <trkpt lat="48.04344" lon="6.90069">
        <ele>962.28</ele>
        <time>2019-02-04T15:22:44.000Z</time>
      </trkpt>
      <trkpt lat="48.04345" lon="6.90064">
        <ele>972.41</ele>
        <time>2019-02-04T15:23:02.000Z</time>
      </trkpt>
      <trkpt lat="48.04342" lon="6.9006">
        <ele>951.53</ele>
        <time>2019-02-04T15:23:38.000Z</time>
      </trkpt>
      <trkpt lat="48.04343" lon="6.90058">
        <ele>952.83</ele>
        <time>2019-02-04T15:23:55.000Z</time>
      </trkpt>
      <trkpt lat="48.04343" lon="6.9006">
        <ele>964.74</ele>
        <time>2019-02-04T15:24:30.000Z</time>
      </trkpt>
      <trkpt lat="48.04345" lon="6.90051">
        <ele>953.36</ele>
        <time>2019-02-04T15:25:05.000Z</time>
      </trkpt>
      <trkpt lat="48.04348" lon="6.90013">
        <ele>957.73</ele>
        <time>2019-02-04T15:25:23.000Z</time>
      </trkpt>
      <trkpt lat="48.04355" lon="6.89993">
        <ele>961.16</ele>
        <time>2019-02-04T15:25:41.000Z</time>
      </trkpt>
      <trkpt lat="48.04341" lon="6.89979">
        <ele>938.6</ele>
        <time>2019-02-04T15:25:59.000Z</time>
      </trkpt>
      <trkpt lat="48.04333" lon="6.89976">
        <ele>931.89</ele>
        <time>2019-02-04T15:26:17.000Z</time>
      </trkpt>
      <trkpt lat="48.04331" lon="6.89973">
        <ele>926.76</ele>
        <time>2019-02-04T15:26:34.000Z</time>
      </trkpt>
      <trkpt lat="48.04308" lon="6.89911">
        <ele>917.49</ele>
        <time>2019-02-04T15:26:52.000Z</time>
      </trkpt>
      <trkpt lat="48.04315" lon="6.89867">
        <ele>970.41</ele>
        <time>2019-02-04T15:27:12.000Z</time>
      </trkpt>
      <trkpt lat="48.04311" lon="6.89862">
        <ele>943.03</ele>
        <time>2019-02-04T15:27:31.000Z</time>
      </trkpt>
      <trkpt lat="48.04314" lon="6.89817">
        <ele>947.34</ele>
        <time>2019-02-04T15:27:49.000Z</time>
      </trkpt>
      <trkpt lat="48.0433" lon="6.89791">
        <ele>929.89</ele>
        <time>2019-02-04T15:28:08.000Z</time>
      </trkpt>
      <trkpt lat="48.04308" lon="6.89743">
        <ele>939.26</ele>
        <time>2019-02-04T15:28:26.000Z</time>
      </trkpt>
      <trkpt lat="48.04319" lon="6.89721">
        <ele>924.79</ele>
        <time>2019-02-04T15:28:45.000Z</time>
      </trkpt>
      <trkpt lat="48.0431" lon="6.89682">
        <ele>928.11</ele>
        <time>2019-02-04T15:29:04.000Z</time>
      </trkpt>
      <trkpt lat="48.04308" lon="6.89659">
        <ele>938.54</ele>
        <time>2019-02-04T15:29:22.000Z</time>
      </trkpt>
      <trkpt lat="48.04303" lon="6.89636">
        <ele>936.68</ele>
        <time>2019-02-04T15:29:40.000Z</time>
      </trkpt>
      <trkpt lat="48.04302" lon="6.89609">
        <ele>938.95</ele>
        <time>2019-02-04T15:29:58.000Z</time>
      </trkpt>
      <trkpt lat="48.04311" lon="6.89585">
        <ele>934.66</ele>
        <time>2019-02-04T15:30:16.000Z</time>
      </trkpt>
      <trkpt lat="48.04321" lon="6.89562">
        <ele>937.39</ele>
        <time>2019-02-04T15:30:34.000Z</time>
      </trkpt>
      <trkpt lat="48.04329" lon="6.89536">
        <ele>938.61</ele>
        <time>2019-02-04T15:30:52.000Z</time>
      </trkpt>
      <trkpt lat="48.0434" lon="6.89507">
        <ele>943.35</ele>
        <time>2019-02-04T15:31:10.000Z</time>
      </trkpt>
      <trkpt lat="48.04348" lon="6.89486">
        <ele>940.81</ele>
        <time>2019-02-04T15:31:28.000Z</time>
      </trkpt>
      <trkpt lat="48.04349" lon="6.89462">
        <ele>938.1</ele>
        <time>2019-02-04T15:31:46.000Z</time>
      </trkpt>
      <trkpt lat="48.04351" lon="6.89435">
        <ele>932.2</ele>
        <time>2019-02-04T15:32:04.000Z</time>
      </trkpt>
      <trkpt lat="48.04356" lon="6.89407">
        <ele>935.37</ele>
        <time>2019-02-04T15:32:22.000Z</time>
      </trkpt>
      <trkpt lat="48.04368" lon="6.89404">
        <ele>936.35</ele>
        <time>2019-02-04T15:32:40.000Z</time>
      </trkpt>
      <trkpt lat="48.0437" lon="6.89403">
        <ele>935.55</ele>
        <time>2019-02-04T15:32:58.000Z</time>
      </trkpt>
      <trkpt lat="48.04387" lon="6.89399">
        <ele>932.52</ele>
        <time>2019-02-04T15:33:16.000Z</time>
      </trkpt>
      <trkpt lat="48.04402" lon="6.89391">
        <ele>931.69</ele>
        <time>2019-02-04T15:33:34.000Z</time>
      </trkpt>
      <trkpt lat="48.04418" lon="6.89382">
        <ele>928.94</ele>
        <time>2019-02-04T15:33:52.000Z</time>
      </trkpt>
      <trkpt lat="48.04426" lon="6.8937">
        <ele>924.69</ele>
        <time>2019-02-04T15:34:10.000Z</time>
      </trkpt>
      <trkpt lat="48.04437" lon="6.89355">
        <ele>915.46</ele>
        <time>2019-02-04T15:34:28.000Z</time>
      </trkpt>
      <trkpt lat="48.0443" lon="6.89349">
        <ele>915.39</ele>
        <time>2019-02-04T15:34:43.643Z</time>
      </trkpt>
      <trkpt lat="48.04465" lon="6.89345">
        <ele>916.36</ele>
        <time>2019-02-04T15:35:02.000Z</time>
      </trkpt>
      <trkpt lat="48.04476" lon="6.893">
        <ele>930.06</ele>
        <time>2019-02-04T15:35:20.000Z</time>
      </trkpt>
      <trkpt lat="48.04477" lon="6.89308">
        <ele>904.39</ele>
        <time>2019-02-04T15:35:38.000Z</time>
      </trkpt>
      <trkpt lat="48.04468" lon="6.89334">
        <ele>887.89</ele>
        <time>2019-02-04T15:35:56.000Z</time>
      </trkpt>
      <trkpt lat="48.04524" lon="6.89329">
        <ele>898.31</ele>
        <time>2019-02-04T15:36:14.000Z</time>
      </trkpt>
      <trkpt lat="48.04523" lon="6.89324">
        <ele>938.72</ele>
        <time>2019-02-04T15:36:32.000Z</time>
      </trkpt>
      <trkpt lat="48.04542" lon="6.8929">
        <ele>941.4</ele>
        <time>2019-02-04T15:36:50.000Z</time>
      </trkpt>
      <trkpt lat="48.04561" lon="6.89262">
        <ele>933.48</ele>
        <time>2019-02-04T15:37:08.000Z</time>
      </trkpt>
      <trkpt lat="48.04562" lon="6.89253">
        <ele>926.77</ele>
        <time>2019-02-04T15:37:26.000Z</time>
      </trkpt>
      <trkpt lat="48.04545" lon="6.89261">
        <ele>908.45</ele>
        <time>2019-02-04T15:37:45.000Z</time>
      </trkpt>
      <trkpt lat="48.04551" lon="6.89239">
        <ele>893.23</ele>
        <time>2019-02-04T15:38:03.000Z</time>
      </trkpt>
      <trkpt lat="48.04554" lon="6.8925">
        <ele>898.57</ele>
        <time>2019-02-04T15:38:21.000Z</time>
      </trkpt>
      <trkpt lat="48.04564" lon="6.89249">
        <ele>906.39</ele>
        <time>2019-02-04T15:38:38.000Z</time>
      </trkpt>
      <trkpt lat="48.04574" lon="6.89208">
        <ele>921.21</ele>
        <time>2019-02-04T15:38:56.000Z</time>
      </trkpt>
      <trkpt lat="48.04575" lon="6.89157">
        <ele>900.08</ele>
        <time>2019-02-04T15:39:15.000Z</time>
      </trkpt>
      <trkpt lat="48.04585" lon="6.89143">
        <ele>877.93</ele>
        <time>2019-02-04T15:39:33.000Z</time>
      </trkpt>
      <trkpt lat="48.04587" lon="6.89127">
        <ele>837.27</ele>
        <time>2019-02-04T15:39:51.000Z</time>
      </trkpt>
      <trkpt lat="48.04592" lon="6.89104">
        <ele>866.46</ele>
        <time>2019-02-04T15:40:09.000Z</time>
      </trkpt>
      <trkpt lat="48.04599" lon="6.89061">
        <ele>860.91</ele>
        <time>2019-02-04T15:40:27.000Z</time>
      </trkpt>
      <trkpt lat="48.04605" lon="6.88996">
        <ele>912.41</ele>
        <time>2019-02-04T15:40:45.000Z</time>
      </trkpt>
      <trkpt lat="48.04613" lon="6.89009">
        <ele>920.24</ele>
        <time>2019-02-04T15:41:04.000Z</time>
      </trkpt>
      <trkpt lat="48.04624" lon="6.88992">
        <ele>926.39</ele>
        <time>2019-02-04T15:41:23.000Z</time>
      </trkpt>
      <trkpt lat="48.04637" lon="6.88966">
        <ele>925.69</ele>
        <time>2019-02-04T15:41:41.000Z</time>
      </trkpt>
      <trkpt lat="48.04651" lon="6.8894">
        <ele>923.01</ele>
        <time>2019-02-04T15:42:00.000Z</time>
      </trkpt>
      <trkpt lat="48.04652" lon="6.88936">
        <ele>890.89</ele>
        <time>2019-02-04T15:42:18.000Z</time>
      </trkpt>
      <trkpt lat="48.04682" lon="6.88916">
        <ele>900.34</ele>
        <time>2019-02-04T15:42:37.000Z</time>
      </trkpt>
      <trkpt lat="48.04685" lon="6.8892">
        <ele>911.19</ele>
        <time>2019-02-04T15:42:55.000Z</time>
      </trkpt>
      <trkpt lat="48.04692" lon="6.88894">
        <ele>891.99</ele>
        <time>2019-02-04T15:43:13.000Z</time>
      </trkpt>
      <trkpt lat="48.04708" lon="6.88868">
        <ele>883.18</ele>
        <time>2019-02-04T15:43:31.000Z</time>
      </trkpt>
      <trkpt lat="48.04734" lon="6.88817">
        <ele>910.76</ele>
        <time>2019-02-04T15:43:49.000Z</time>
      </trkpt>
      <trkpt lat="48.04745" lon="6.88816">
        <ele>885.76</ele>
        <time>2019-02-04T15:44:08.000Z</time>
      </trkpt>
      <trkpt lat="48.04745" lon="6.8882">
        <ele>870.8</ele>
        <time>2019-02-04T15:44:26.000Z</time>
      </trkpt>
      <trkpt lat="48.04745" lon="6.88817">
        <ele>876.26</ele>
        <time>2019-02-04T15:44:44.000Z</time>
      </trkpt>
      <trkpt lat="48.04745" lon="6.88808">
        <ele>875.79</ele>
        <time>2019-02-04T15:45:04.000Z</time>
      </trkpt>
      <trkpt lat="48.04753" lon="6.88779">
        <ele>868.87</ele>
        <time>2019-02-04T15:45:22.000Z</time>
      </trkpt>
      <trkpt lat="48.04755" lon="6.88779">
        <ele>870.41</ele>
        <time>2019-02-04T15:45:39.000Z</time>
      </trkpt>
      <trkpt lat="48.04762" lon="6.88742">
        <ele>850.11</ele>
        <time>2019-02-04T15:45:58.000Z</time>
      </trkpt>
      <trkpt lat="48.04773" lon="6.88706">
        <ele>846.12</ele>
        <time>2019-02-04T15:46:16.000Z</time>
      </trkpt>
      <trkpt lat="48.04817" lon="6.88678">
        <ele>861.26</ele>
        <time>2019-02-04T15:46:34.000Z</time>
      </trkpt>
      <trkpt lat="48.04808" lon="6.88655">
        <ele>849.2</ele>
        <time>2019-02-04T15:46:52.000Z</time>
      </trkpt>
      <trkpt lat="48.04813" lon="6.88664">
        <ele>838.82</ele>
        <time>2019-02-04T15:47:10.000Z</time>
      </trkpt>
      <trkpt lat="48.04802" lon="6.88663">
        <ele>833.48</ele>
        <time>2019-02-04T15:47:20.000Z</time>
      </trkpt>
      <trkpt lat="48.048" lon="6.88656">
        <ele>850.56</ele>
        <time>2019-02-04T15:47:38.000Z</time>
      </trkpt>
      <trkpt lat="48.04786" lon="6.88649">
        <ele>839.62</ele>
        <time>2019-02-04T15:48:12.000Z</time>
      </trkpt>
      <trkpt lat="48.04783" lon="6.88596">
        <ele>853.83</ele>
        <time>2019-02-04T15:48:30.000Z</time>
      </trkpt>
      <trkpt lat="48.04775" lon="6.88574">
        <ele>846.63</ele>
        <time>2019-02-04T15:48:48.000Z</time>
      </trkpt>
      <trkpt lat="48.04765" lon="6.88544">
        <ele>850.62</ele>
        <time>2019-02-04T15:49:06.000Z</time>
      </trkpt>
      <trkpt lat="48.04766" lon="6.88514">
        <ele>853.49</ele>
        <time>2019-02-04T15:49:24.000Z</time>
      </trkpt>
      <trkpt lat="48.04768" lon="6.88486">
        <ele>852.58</ele>
        <time>2019-02-04T15:49:42.000Z</time>
      </trkpt>
      <trkpt lat="48.04764" lon="6.88452">
        <ele>844.29</ele>
        <time>2019-02-04T15:50:00.000Z</time>
      </trkpt>
      <trkpt lat="48.04782" lon="6.88418">
        <ele>858.01</ele>
        <time>2019-02-04T15:50:18.000Z</time>
      </trkpt>
      <trkpt lat="48.04789" lon="6.88389">
        <ele>849.55</ele>
        <time>2019-02-04T15:50:36.000Z</time>
      </trkpt>
      <trkpt lat="48.04797" lon="6.8836">
        <ele>853.49</ele>
        <time>2019-02-04T15:50:54.000Z</time>
      </trkpt>
      <trkpt lat="48.04798" lon="6.88333">
        <ele>850.43</ele>
        <time>2019-02-04T15:51:12.000Z</time>
      </trkpt>
      <trkpt lat="48.04811" lon="6.88293">
        <ele>858.45</ele>
        <time>2019-02-04T15:51:30.000Z</time>
      </trkpt>
      <trkpt lat="48.04806" lon="6.88267">
        <ele>860.02</ele>
        <time>2019-02-04T15:51:48.000Z</time>
      </trkpt>
      <trkpt lat="48.04804" lon="6.88272">
        <ele>859.46</ele>
        <time>2019-02-04T15:52:05.000Z</time>
      </trkpt>
      <trkpt lat="48.04788" lon="6.88281">
        <ele>842.27</ele>
        <time>2019-02-04T15:52:23.000Z</time>
      </trkpt>
      <trkpt lat="48.04784" lon="6.88261">
        <ele>838.98</ele>
        <time>2019-02-04T15:52:41.000Z</time>
      </trkpt>
      <trkpt lat="48.04785" lon="6.88253">
        <ele>843</ele>
        <time>2019-02-04T15:52:59.000Z</time>
      </trkpt>
      <trkpt lat="48.04782" lon="6.8825">
        <ele>843.26</ele>
        <time>2019-02-04T15:53:16.000Z</time>
      </trkpt>
      <trkpt lat="48.04777" lon="6.88186">
        <ele>847.05</ele>
        <time>2019-02-04T15:53:51.000Z</time>
      </trkpt>
      <trkpt lat="48.04758" lon="6.88184">
        <ele>842.44</ele>
        <time>2019-02-04T15:54:08.000Z</time>
      </trkpt>
      <trkpt lat="48.04732" lon="6.8817">
        <ele>843.84</ele>
        <time>2019-02-04T15:54:26.000Z</time>
      </trkpt>
      <trkpt lat="48.04736" lon="6.88149">
        <ele>833.69</ele>
        <time>2019-02-04T15:54:44.000Z</time>
      </trkpt>
      <trkpt lat="48.04706" lon="6.88131">
        <ele>841.22</ele>
        <time>2019-02-04T15:55:02.000Z</time>
      </trkpt>
      <trkpt lat="48.04727" lon="6.88134">
        <ele>827.74</ele>
        <time>2019-02-04T15:55:19.000Z</time>
      </trkpt>
      <trkpt lat="48.0472" lon="6.88123">
        <ele>868.04</ele>
        <time>2019-02-04T15:55:37.000Z</time>
      </trkpt>
      <trkpt lat="48.04699" lon="6.8809">
        <ele>852.93</ele>
        <time>2019-02-04T15:55:55.000Z</time>
      </trkpt>
      <trkpt lat="48.04706" lon="6.88068">
        <ele>868.57</ele>
        <time>2019-02-04T15:56:13.000Z</time>
      </trkpt>
      <trkpt lat="48.04663" lon="6.88055">
        <ele>842.51</ele>
        <time>2019-02-04T15:56:31.000Z</time>
      </trkpt>
      <trkpt lat="48.04666" lon="6.88035">
        <ele>830.72</ele>
        <time>2019-02-04T15:56:49.000Z</time>
      </trkpt>
      <trkpt lat="48.0465" lon="6.88018">
        <ele>828.2</ele>
        <time>2019-02-04T15:57:07.000Z</time>
      </trkpt>
      <trkpt lat="48.0466" lon="6.87969">
        <ele>839.39</ele>
        <time>2019-02-04T15:57:25.000Z</time>
      </trkpt>
      <trkpt lat="48.04647" lon="6.87964">
        <ele>828.21</ele>
        <time>2019-02-04T15:57:43.000Z</time>
      </trkpt>
      <trkpt lat="48.04636" lon="6.8794">
        <ele>831.96</ele>
        <time>2019-02-04T15:58:01.000Z</time>
      </trkpt>
      <trkpt lat="48.04614" lon="6.87925">
        <ele>833.73</ele>
        <time>2019-02-04T15:58:19.000Z</time>
      </trkpt>
      <trkpt lat="48.04612" lon="6.87912">
        <ele>827.62</ele>
        <time>2019-02-04T15:58:37.000Z</time>
      </trkpt>
      <trkpt lat="48.04625" lon="6.87888">
        <ele>826.19</ele>
        <time>2019-02-04T15:58:55.000Z</time>
      </trkpt>
      <trkpt lat="48.04628" lon="6.8786">
        <ele>830.21</ele>
        <time>2019-02-04T15:59:13.000Z</time>
      </trkpt>
      <trkpt lat="48.04654" lon="6.87839">
        <ele>825.14</ele>
        <time>2019-02-04T15:59:31.000Z</time>
      </trkpt>
      <trkpt lat="48.0466" lon="6.87826">
        <ele>824.86</ele>
        <time>2019-02-04T15:59:49.000Z</time>
      </trkpt>
      <trkpt lat="48.04672" lon="6.87807">
        <ele>828.59</ele>
        <time>2019-02-04T16:00:07.000Z</time>
      </trkpt>
      <trkpt lat="48.0469" lon="6.87799">
        <ele>845.53</ele>
        <time>2019-02-04T16:00:25.000Z</time>
      </trkpt>
      <trkpt lat="48.04705" lon="6.87798">
        <ele>821.62</ele>
        <time>2019-02-04T16:00:43.000Z</time>
      </trkpt>
      <trkpt lat="48.0472" lon="6.87781">
        <ele>836.94</ele>
        <time>2019-02-04T16:01:01.000Z</time>
      </trkpt>
      <trkpt lat="48.04722" lon="6.87769">
        <ele>831.23</ele>
        <time>2019-02-04T16:01:19.000Z</time>
      </trkpt>
      <trkpt lat="48.04732" lon="6.87768">
        <ele>823.14</ele>
        <time>2019-02-04T16:01:37.000Z</time>
      </trkpt>
      <trkpt lat="48.04743" lon="6.87757">
        <ele>818.53</ele>
        <time>2019-02-04T16:01:55.000Z</time>
      </trkpt>
      <trkpt lat="48.04745" lon="6.87745">
        <ele>824.17</ele>
        <time>2019-02-04T16:02:12.000Z</time>
      </trkpt>
      <trkpt lat="48.04743" lon="6.87733">
        <ele>830.47</ele>
        <time>2019-02-04T16:02:30.000Z</time>
      </trkpt>
      <trkpt lat="48.04739" lon="6.87678">
        <ele>834.08</ele>
        <time>2019-02-04T16:02:47.000Z</time>
      </trkpt>
      <trkpt lat="48.04739" lon="6.87664">
        <ele>823.15</ele>
        <time>2019-02-04T16:03:05.000Z</time>
      </trkpt>
      <trkpt lat="48.04749" lon="6.87656">
        <ele>819.31</ele>
        <time>2019-02-04T16:03:20.630Z</time>
      </trkpt>
      <trkpt lat="48.04746" lon="6.87601">
        <ele>818.77</ele>
        <time>2019-02-04T16:03:39.000Z</time>
      </trkpt>
      <trkpt lat="48.04753" lon="6.87586">
        <ele>813.71</ele>
        <time>2019-02-04T16:03:57.000Z</time>
      </trkpt>
      <trkpt lat="48.04771" lon="6.87555">
        <ele>810.55</ele>
        <time>2019-02-04T16:04:14.000Z</time>
      </trkpt>
      <trkpt lat="48.04788" lon="6.87553">
        <ele>811.56</ele>
        <time>2019-02-04T16:04:32.000Z</time>
      </trkpt>
      <trkpt lat="48.04807" lon="6.87531">
        <ele>819.42</ele>
        <time>2019-02-04T16:04:50.000Z</time>
      </trkpt>
      <trkpt lat="48.04818" lon="6.8753">
        <ele>811.65</ele>
        <time>2019-02-04T16:05:08.000Z</time>
      </trkpt>
      <trkpt lat="48.04844" lon="6.87494">
        <ele>826.69</ele>
        <time>2019-02-04T16:05:26.000Z</time>
      </trkpt>
      <trkpt lat="48.04861" lon="6.87474">
        <ele>839.16</ele>
        <time>2019-02-04T16:05:44.000Z</time>
      </trkpt>
      <trkpt lat="48.04877" lon="6.87454">
        <ele>827.28</ele>
        <time>2019-02-04T16:06:02.000Z</time>
      </trkpt>
      <trkpt lat="48.04884" lon="6.87452">
        <ele>811.82</ele>
        <time>2019-02-04T16:06:20.000Z</time>
      </trkpt>
      <trkpt lat="48.04906" lon="6.87432">
        <ele>819.63</ele>
        <time>2019-02-04T16:06:38.000Z</time>
      </trkpt>
      <trkpt lat="48.04899" lon="6.87395">
        <ele>794.06</ele>
        <time>2019-02-04T16:06:56.000Z</time>
      </trkpt>
      <trkpt lat="48.04923" lon="6.87365">
        <ele>797.86</ele>
        <time>2019-02-04T16:07:14.000Z</time>
      </trkpt>
      <trkpt lat="48.04931" lon="6.87356">
        <ele>796.56</ele>
        <time>2019-02-04T16:07:32.000Z</time>
      </trkpt>
      <trkpt lat="48.04946" lon="6.87327">
        <ele>788.1</ele>
        <time>2019-02-04T16:07:50.000Z</time>
      </trkpt>
      <trkpt lat="48.0496" lon="6.87316">
        <ele>788.78</ele>
        <time>2019-02-04T16:08:08.000Z</time>
      </trkpt>
      <trkpt lat="48.04963" lon="6.8732">
        <ele>787.26</ele>
        <time>2019-02-04T16:08:26.000Z</time>
      </trkpt>
      <trkpt lat="48.04994" lon="6.87318">
        <ele>800.58</ele>
        <time>2019-02-04T16:08:44.000Z</time>
      </trkpt>
      <trkpt lat="48.05021" lon="6.87334">
        <ele>814.72</ele>
        <time>2019-02-04T16:09:01.000Z</time>
      </trkpt>
      <trkpt lat="48.05023" lon="6.87363">
        <ele>814.75</ele>
        <time>2019-02-04T16:09:19.000Z</time>
      </trkpt>
      <trkpt lat="48.05015" lon="6.87394">
        <ele>795.89</ele>
        <time>2019-02-04T16:09:37.000Z</time>
      </trkpt>
      <trkpt lat="48.05024" lon="6.87423">
        <ele>790.31</ele>
        <time>2019-02-04T16:09:55.000Z</time>
      </trkpt>
      <trkpt lat="48.05022" lon="6.87411">
        <ele>774.42</ele>
        <time>2019-02-04T16:10:13.000Z</time>
      </trkpt>
      <trkpt lat="48.05011" lon="6.87465">
        <ele>791.11</ele>
        <time>2019-02-04T16:10:31.000Z</time>
      </trkpt>
      <trkpt lat="48.05002" lon="6.87469">
        <ele>778.87</ele>
        <time>2019-02-04T16:10:50.000Z</time>
      </trkpt>
    </trkseg>
  </trk>
</gpx>